sensor_id;sensor_type;location;lat;lon;timestamp;P1;durP1;ratioP1;P2;durP2;ratioP2
6290;SDS011;3178;48.730;8.990;2022-12-20T00:02:20;17.80;;;8.83;;
6290;SDS011;3178;48.730;8.990;2022-12-20T00:04:46;15.67;;;9.23;;
6290;SDS011;3178;48.730;8.990;2022-12-20T00:07:11;15.60;;;9.43;;
6290;SDS011;3178;48.730;8.990;2022-12-20T00:09:37;11.90;;;7.90;;
6290;SDS011;3178;48.730;8.990;2022-12-20T00:12:02;15.63;;;9.00;;
6290;SDS011;3178;48.730;8.990;2022-12-20T00:14:28;15.67;;;7.73;;
6290;SDS011;3178;48.730;8.990;2022-12-20T00:16:54;12.30;;;8.60;;
6290;SDS011;3178;48.730;8.990;2022-12-20T00:19:19;14.30;;;9.30;;
6290;SDS011;3178;48.730;8.990;2022-12-20T00:21:45;15.60;;;9.03;;
6290;SDS011;3178;48.730;8.990;2022-12-20T00:24:10;15.90;;;8.93;;
6290;SDS011;3178;48.730;8.990;2022-12-20T00:26:36;19.50;;;9.80;;
6290;SDS011;3178;48.730;8.990;2022-12-20T00:29:02;20.13;;;8.70;;
6290;SDS011;3178;48.730;8.990;2022-12-20T00:31:29;15.30;;;9.33;;
6290;SDS011;3178;48.730;8.990;2022-12-20T00:33:55;13.90;;;8.77;;
6290;SDS011;3178;48.730;8.990;2022-12-20T00:36:22;14.37;;;9.13;;
6290;SDS011;3178;48.730;8.990;2022-12-20T00:38:50;14.93;;;8.87;;
6290;SDS011;3178;48.730;8.990;2022-12-20T00:41:18;16.00;;;8.30;;
6290;SDS011;3178;48.730;8.990;2022-12-20T00:43:45;15.87;;;9.53;;
6290;SDS011;3178;48.730;8.990;2022-12-20T00:46:11;14.33;;;8.80;;
6290;SDS011;3178;48.730;8.990;2022-12-20T00:48:38;15.33;;;8.23;;
6290;SDS011;3178;48.730;8.990;2022-12-20T00:51:08;18.93;;;9.20;;
6290;SDS011;3178;48.730;8.990;2022-12-20T00:53:36;16.00;;;8.73;;
6290;SDS011;3178;48.730;8.990;2022-12-20T00:56:03;12.80;;;8.03;;
6290;SDS011;3178;48.730;8.990;2022-12-20T00:58:30;16.10;;;8.07;;
6290;SDS011;3178;48.730;8.990;2022-12-20T01:00:57;18.33;;;8.20;;
6290;SDS011;3178;48.730;8.990;2022-12-20T01:03:23;17.43;;;9.40;;
6290;SDS011;3178;48.730;8.990;2022-12-20T01:05:50;14.63;;;9.03;;
6290;SDS011;3178;48.730;8.990;2022-12-20T01:08:17;18.30;;;8.87;;
6290;SDS011;3178;48.730;8.990;2022-12-20T01:10:43;13.00;;;7.77;;
6290;SDS011;3178;48.730;8.990;2022-12-20T01:13:08;16.07;;;9.00;;
6290;SDS011;3178;48.730;8.990;2022-12-20T01:15:34;16.83;;;8.17;;
6290;SDS011;3178;48.730;8.990;2022-12-20T01:18:00;14.20;;;7.57;;
6290;SDS011;3178;48.730;8.990;2022-12-20T01:20:25;11.77;;;7.47;;
6290;SDS011;3178;48.730;8.990;2022-12-20T01:22:51;15.90;;;7.17;;
6290;SDS011;3178;48.730;8.990;2022-12-20T01:25:16;9.87;;;6.60;;
6290;SDS011;3178;48.730;8.990;2022-12-20T01:27:42;11.30;;;7.40;;
6290;SDS011;3178;48.730;8.990;2022-12-20T01:30:07;14.00;;;7.40;;
6290;SDS011;3178;48.730;8.990;2022-12-20T01:32:34;13.27;;;8.40;;
6290;SDS011;3178;48.730;8.990;2022-12-20T01:34:59;11.67;;;7.93;;
6290;SDS011;3178;48.730;8.990;2022-12-20T01:37:25;14.37;;;7.80;;
6290;SDS011;3178;48.730;8.990;2022-12-20T01:39:50;18.70;;;8.40;;
6290;SDS011;3178;48.730;8.990;2022-12-20T01:42:16;10.47;;;7.50;;
6290;SDS011;3178;48.730;8.990;2022-12-20T01:47:07;16.43;;;7.63;;
6290;SDS011;3178;48.730;8.990;2022-12-20T01:49:39;15.20;;;8.73;;
6290;SDS011;3178;48.730;8.990;2022-12-20T01:52:24;13.90;;;8.43;;
6290;SDS011;3178;48.730;8.990;2022-12-20T01:54:59;13.30;;;8.13;;
6290;SDS011;3178;48.730;8.990;2022-12-20T01:57:28;14.00;;;8.37;;
6290;SDS011;3178;48.730;8.990;2022-12-20T02:00:03;13.10;;;7.90;;
6290;SDS011;3178;48.730;8.990;2022-12-20T02:02:31;15.70;;;7.57;;
6290;SDS011;3178;48.730;8.990;2022-12-20T02:04:57;12.50;;;8.33;;
6290;SDS011;3178;48.730;8.990;2022-12-20T02:07:23;12.67;;;8.20;;
6290;SDS011;3178;48.730;8.990;2022-12-20T02:09:52;15.30;;;8.50;;
6290;SDS011;3178;48.730;8.990;2022-12-20T02:12:25;15.10;;;8.77;;
6290;SDS011;3178;48.730;8.990;2022-12-20T02:17:37;14.30;;;7.50;;
6290;SDS011;3178;48.730;8.990;2022-12-20T02:25:30;13.70;;;7.70;;
6290;SDS011;3178;48.730;8.990;2022-12-20T02:28:30;15.27;;;8.80;;
6290;SDS011;3178;48.730;8.990;2022-12-20T02:31:15;12.53;;;7.93;;
6290;SDS011;3178;48.730;8.990;2022-12-20T02:33:46;10.37;;;6.20;;
6290;SDS011;3178;48.730;8.990;2022-12-20T02:36:14;11.83;;;7.27;;
6290;SDS011;3178;48.730;8.990;2022-12-20T02:38:41;12.43;;;7.87;;
6290;SDS011;3178;48.730;8.990;2022-12-20T02:41:14;11.97;;;7.50;;
6290;SDS011;3178;48.730;8.990;2022-12-20T02:43:44;11.33;;;7.73;;
6290;SDS011;3178;48.730;8.990;2022-12-20T02:46:34;16.27;;;7.47;;
6290;SDS011;3178;48.730;8.990;2022-12-20T02:49:04;14.00;;;7.97;;
6290;SDS011;3178;48.730;8.990;2022-12-20T02:51:40;12.07;;;7.27;;
6290;SDS011;3178;48.730;8.990;2022-12-20T02:54:09;10.77;;;6.50;;
6290;SDS011;3178;48.730;8.990;2022-12-20T02:56:37;12.03;;;7.60;;
6290;SDS011;3178;48.730;8.990;2022-12-20T02:59:08;11.90;;;7.20;;
6290;SDS011;3178;48.730;8.990;2022-12-20T03:01:49;11.73;;;7.10;;
6290;SDS011;3178;48.730;8.990;2022-12-20T03:04:17;9.97;;;7.40;;
6290;SDS011;3178;48.730;8.990;2022-12-20T03:06:56;13.60;;;8.60;;
6290;SDS011;3178;48.730;8.990;2022-12-20T03:09:22;15.73;;;8.67;;
6290;SDS011;3178;48.730;8.990;2022-12-20T03:11:47;17.90;;;9.03;;
6290;SDS011;3178;48.730;8.990;2022-12-20T03:14:13;15.47;;;8.97;;
6290;SDS011;3178;48.730;8.990;2022-12-20T03:16:38;11.97;;;8.40;;
6290;SDS011;3178;48.730;8.990;2022-12-20T03:19:04;13.63;;;8.83;;
6290;SDS011;3178;48.730;8.990;2022-12-20T03:21:29;14.23;;;8.80;;
6290;SDS011;3178;48.730;8.990;2022-12-20T03:23:55;14.93;;;9.07;;
6290;SDS011;3178;48.730;8.990;2022-12-20T03:26:20;18.90;;;8.63;;
6290;SDS011;3178;48.730;8.990;2022-12-20T03:28:55;14.60;;;8.57;;
6290;SDS011;3178;48.730;8.990;2022-12-20T03:31:20;15.20;;;9.00;;
6290;SDS011;3178;48.730;8.990;2022-12-20T03:33:46;14.70;;;8.80;;
6290;SDS011;3178;48.730;8.990;2022-12-20T03:36:12;16.83;;;9.30;;
6290;SDS011;3178;48.730;8.990;2022-12-20T03:38:38;17.40;;;9.13;;
6290;SDS011;3178;48.730;8.990;2022-12-20T03:41:03;13.20;;;8.60;;
6290;SDS011;3178;48.730;8.990;2022-12-20T03:43:29;15.00;;;9.13;;
6290;SDS011;3178;48.730;8.990;2022-12-20T03:45:55;13.17;;;8.87;;
6290;SDS011;3178;48.730;8.990;2022-12-20T03:48:20;13.50;;;8.73;;
6290;SDS011;3178;48.730;8.990;2022-12-20T03:50:46;14.03;;;8.77;;
6290;SDS011;3178;48.730;8.990;2022-12-20T03:53:11;17.73;;;9.30;;
6290;SDS011;3178;48.730;8.990;2022-12-20T03:55:37;12.90;;;8.30;;
6290;SDS011;3178;48.730;8.990;2022-12-20T03:58:02;14.33;;;7.50;;
6290;SDS011;3178;48.730;8.990;2022-12-20T04:00:28;9.57;;;6.97;;
6290;SDS011;3178;48.730;8.990;2022-12-20T04:02:53;14.53;;;7.83;;
6290;SDS011;3178;48.730;8.990;2022-12-20T04:05:19;12.17;;;6.43;;
6290;SDS011;3178;48.730;8.990;2022-12-20T04:07:45;10.00;;;7.23;;
6290;SDS011;3178;48.730;8.990;2022-12-20T04:10:11;13.80;;;9.27;;
6290;SDS011;3178;48.730;8.990;2022-12-20T04:12:37;12.70;;;8.43;;
6290;SDS011;3178;48.730;8.990;2022-12-20T04:15:03;12.53;;;7.70;;
6290;SDS011;3178;48.730;8.990;2022-12-20T04:17:29;15.73;;;8.63;;
6290;SDS011;3178;48.730;8.990;2022-12-20T04:19:54;13.20;;;8.17;;
6290;SDS011;3178;48.730;8.990;2022-12-20T04:22:20;12.73;;;7.90;;
6290;SDS011;3178;48.730;8.990;2022-12-20T04:24:45;12.43;;;7.70;;
6290;SDS011;3178;48.730;8.990;2022-12-20T04:27:11;12.43;;;8.00;;
6290;SDS011;3178;48.730;8.990;2022-12-20T04:29:37;12.73;;;7.67;;
6290;SDS011;3178;48.730;8.990;2022-12-20T04:32:02;14.10;;;8.10;;
6290;SDS011;3178;48.730;8.990;2022-12-20T04:34:28;14.47;;;7.53;;
6290;SDS011;3178;48.730;8.990;2022-12-20T04:36:54;11.10;;;7.43;;
6290;SDS011;3178;48.730;8.990;2022-12-20T04:39:19;13.70;;;8.00;;
6290;SDS011;3178;48.730;8.990;2022-12-20T04:41:45;16.03;;;8.67;;
6290;SDS011;3178;48.730;8.990;2022-12-20T04:44:10;11.40;;;7.53;;
6290;SDS011;3178;48.730;8.990;2022-12-20T04:46:36;16.90;;;7.80;;
6290;SDS011;3178;48.730;8.990;2022-12-20T04:49:01;11.97;;;7.60;;
6290;SDS011;3178;48.730;8.990;2022-12-20T04:51:28;12.77;;;6.83;;
6290;SDS011;3178;48.730;8.990;2022-12-20T04:53:54;10.77;;;7.30;;
6290;SDS011;3178;48.730;8.990;2022-12-20T04:56:24;15.43;;;7.90;;
6290;SDS011;3178;48.730;8.990;2022-12-20T04:58:52;15.83;;;8.30;;
6290;SDS011;3178;48.730;8.990;2022-12-20T05:01:19;13.83;;;7.50;;
6290;SDS011;3178;48.730;8.990;2022-12-20T05:03:45;17.87;;;7.97;;
6290;SDS011;3178;48.730;8.990;2022-12-20T05:06:11;10.93;;;7.57;;
6290;SDS011;3178;48.730;8.990;2022-12-20T05:08:37;14.40;;;7.80;;
6290;SDS011;3178;48.730;8.990;2022-12-20T05:11:03;10.90;;;6.80;;
6290;SDS011;3178;48.730;8.990;2022-12-20T05:13:29;10.80;;;6.53;;
6290;SDS011;3178;48.730;8.990;2022-12-20T05:15:56;11.60;;;7.43;;
6290;SDS011;3178;48.730;8.990;2022-12-20T05:18:22;14.20;;;7.30;;
6290;SDS011;3178;48.730;8.990;2022-12-20T05:20:48;11.30;;;6.87;;
6290;SDS011;3178;48.730;8.990;2022-12-20T05:23:34;13.20;;;7.80;;
6290;SDS011;3178;48.730;8.990;2022-12-20T05:26:18;9.93;;;6.73;;
6290;SDS011;3178;48.730;8.990;2022-12-20T05:28:43;12.13;;;6.70;;
6290;SDS011;3178;48.730;8.990;2022-12-20T05:31:09;17.63;;;7.87;;
6290;SDS011;3178;48.730;8.990;2022-12-20T05:33:35;9.53;;;5.97;;
6290;SDS011;3178;48.730;8.990;2022-12-20T05:36:00;8.27;;;6.30;;
6290;SDS011;3178;48.730;8.990;2022-12-20T05:38:26;8.70;;;5.87;;
6290;SDS011;3178;48.730;8.990;2022-12-20T05:40:52;10.67;;;6.10;;
6290;SDS011;3178;48.730;8.990;2022-12-20T05:43:18;8.53;;;6.00;;
6290;SDS011;3178;48.730;8.990;2022-12-20T05:45:48;8.73;;;5.70;;
6290;SDS011;3178;48.730;8.990;2022-12-20T05:48:15;10.10;;;5.70;;
6290;SDS011;3178;48.730;8.990;2022-12-20T05:50:42;8.70;;;5.47;;
6290;SDS011;3178;48.730;8.990;2022-12-20T05:53:15;8.83;;;5.80;;
6290;SDS011;3178;48.730;8.990;2022-12-20T05:55:46;10.43;;;5.87;;
6290;SDS011;3178;48.730;8.990;2022-12-20T05:58:13;9.40;;;5.90;;
6290;SDS011;3178;48.730;8.990;2022-12-20T06:00:40;13.83;;;6.33;;
6290;SDS011;3178;48.730;8.990;2022-12-20T06:03:06;10.10;;;5.27;;
6290;SDS011;3178;48.730;8.990;2022-12-20T06:05:34;9.10;;;5.30;;
6290;SDS011;3178;48.730;8.990;2022-12-20T06:08:00;10.10;;;6.07;;
6290;SDS011;3178;48.730;8.990;2022-12-20T06:10:26;9.40;;;5.67;;
6290;SDS011;3178;48.730;8.990;2022-12-20T06:12:52;13.80;;;6.93;;
6290;SDS011;3178;48.730;8.990;2022-12-20T06:15:17;9.33;;;6.00;;
6290;SDS011;3178;48.730;8.990;2022-12-20T06:17:43;9.57;;;6.50;;
6290;SDS011;3178;48.730;8.990;2022-12-20T06:20:09;13.00;;;5.93;;
6290;SDS011;3178;48.730;8.990;2022-12-20T06:22:36;8.37;;;5.70;;
6290;SDS011;3178;48.730;8.990;2022-12-20T06:25:02;9.80;;;6.03;;
6290;SDS011;3178;48.730;8.990;2022-12-20T06:27:28;9.23;;;6.73;;
6290;SDS011;3178;48.730;8.990;2022-12-20T06:29:54;8.83;;;5.90;;
6290;SDS011;3178;48.730;8.990;2022-12-20T06:32:19;9.50;;;6.23;;
6290;SDS011;3178;48.730;8.990;2022-12-20T06:34:45;9.70;;;5.80;;
6290;SDS011;3178;48.730;8.990;2022-12-20T06:37:11;10.60;;;6.30;;
6290;SDS011;3178;48.730;8.990;2022-12-20T06:39:37;11.17;;;6.20;;
6290;SDS011;3178;48.730;8.990;2022-12-20T06:42:02;8.00;;;5.20;;
6290;SDS011;3178;48.730;8.990;2022-12-20T06:44:29;10.93;;;5.80;;
6290;SDS011;3178;48.730;8.990;2022-12-20T06:46:54;10.93;;;5.90;;
6290;SDS011;3178;48.730;8.990;2022-12-20T06:49:20;7.70;;;5.43;;
6290;SDS011;3178;48.730;8.990;2022-12-20T06:51:46;14.20;;;6.30;;
6290;SDS011;3178;48.730;8.990;2022-12-20T06:54:12;10.70;;;5.93;;
6290;SDS011;3178;48.730;8.990;2022-12-20T06:56:37;11.17;;;5.50;;
6290;SDS011;3178;48.730;8.990;2022-12-20T06:59:03;13.10;;;6.57;;
6290;SDS011;3178;48.730;8.990;2022-12-20T07:01:29;8.27;;;5.70;;
6290;SDS011;3178;48.730;8.990;2022-12-20T07:03:54;9.20;;;5.97;;
6290;SDS011;3178;48.730;8.990;2022-12-20T07:06:20;9.57;;;5.20;;
6290;SDS011;3178;48.730;8.990;2022-12-20T07:08:46;8.73;;;5.43;;
6290;SDS011;3178;48.730;8.990;2022-12-20T07:11:11;11.90;;;5.97;;
6290;SDS011;3178;48.730;8.990;2022-12-20T07:13:37;9.63;;;5.73;;
6290;SDS011;3178;48.730;8.990;2022-12-20T07:16:02;9.87;;;6.00;;
6290;SDS011;3178;48.730;8.990;2022-12-20T07:18:29;12.20;;;6.20;;
6290;SDS011;3178;48.730;8.990;2022-12-20T07:20:58;18.47;;;5.40;;
6290;SDS011;3178;48.730;8.990;2022-12-20T07:23:28;12.10;;;5.83;;
6290;SDS011;3178;48.730;8.990;2022-12-20T07:25:53;7.40;;;5.13;;
6290;SDS011;3178;48.730;8.990;2022-12-20T07:28:20;10.77;;;6.53;;
6290;SDS011;3178;48.730;8.990;2022-12-20T07:30:46;10.00;;;5.47;;
6290;SDS011;3178;48.730;8.990;2022-12-20T07:33:11;10.50;;;5.93;;
6290;SDS011;3178;48.730;8.990;2022-12-20T07:35:37;9.13;;;5.70;;
6290;SDS011;3178;48.730;8.990;2022-12-20T07:38:02;10.73;;;6.13;;
6290;SDS011;3178;48.730;8.990;2022-12-20T07:40:28;10.20;;;6.30;;
6290;SDS011;3178;48.730;8.990;2022-12-20T07:42:53;8.43;;;5.87;;
6290;SDS011;3178;48.730;8.990;2022-12-20T07:45:19;11.43;;;6.27;;
6290;SDS011;3178;48.730;8.990;2022-12-20T07:47:44;10.30;;;5.57;;
6290;SDS011;3178;48.730;8.990;2022-12-20T07:50:10;13.47;;;5.80;;
6290;SDS011;3178;48.730;8.990;2022-12-20T07:52:35;10.93;;;6.20;;
6290;SDS011;3178;48.730;8.990;2022-12-20T07:55:03;11.07;;;5.80;;
6290;SDS011;3178;48.730;8.990;2022-12-20T07:57:31;9.00;;;4.37;;
6290;SDS011;3178;48.730;8.990;2022-12-20T08:00:13;8.70;;;5.33;;
6290;SDS011;3178;48.730;8.990;2022-12-20T08:02:41;8.37;;;5.27;;
6290;SDS011;3178;48.730;8.990;2022-12-20T08:05:12;9.73;;;5.37;;
6290;SDS011;3178;48.730;8.990;2022-12-20T08:07:39;10.43;;;5.60;;
6290;SDS011;3178;48.730;8.990;2022-12-20T08:10:07;10.30;;;5.50;;
6290;SDS011;3178;48.730;8.990;2022-12-20T08:12:35;12.27;;;5.70;;
6290;SDS011;3178;48.730;8.990;2022-12-20T08:15:00;11.00;;;5.50;;
6290;SDS011;3178;48.730;8.990;2022-12-20T08:17:26;14.50;;;6.60;;
6290;SDS011;3178;48.730;8.990;2022-12-20T08:19:52;8.93;;;4.60;;
6290;SDS011;3178;48.730;8.990;2022-12-20T08:22:18;14.13;;;6.23;;
6290;SDS011;3178;48.730;8.990;2022-12-20T08:24:43;14.57;;;5.37;;
6290;SDS011;3178;48.730;8.990;2022-12-20T08:27:09;8.40;;;4.57;;
6290;SDS011;3178;48.730;8.990;2022-12-20T08:29:35;8.17;;;5.20;;
6290;SDS011;3178;48.730;8.990;2022-12-20T08:32:01;13.50;;;5.97;;
6290;SDS011;3178;48.730;8.990;2022-12-20T08:34:26;10.57;;;5.30;;
6290;SDS011;3178;48.730;8.990;2022-12-20T08:36:52;8.23;;;5.03;;
6290;SDS011;3178;48.730;8.990;2022-12-20T08:39:17;9.10;;;5.50;;
6290;SDS011;3178;48.730;8.990;2022-12-20T08:41:43;6.37;;;4.40;;
6290;SDS011;3178;48.730;8.990;2022-12-20T08:44:08;12.33;;;6.93;;
6290;SDS011;3178;48.730;8.990;2022-12-20T08:46:34;7.53;;;4.73;;
6290;SDS011;3178;48.730;8.990;2022-12-20T08:49:01;10.93;;;4.30;;
6290;SDS011;3178;48.730;8.990;2022-12-20T08:51:27;9.00;;;4.97;;
6290;SDS011;3178;48.730;8.990;2022-12-20T08:53:53;7.00;;;4.53;;
6290;SDS011;3178;48.730;8.990;2022-12-20T08:56:18;7.60;;;4.60;;
6290;SDS011;3178;48.730;8.990;2022-12-20T08:58:44;18.60;;;5.90;;
6290;SDS011;3178;48.730;8.990;2022-12-20T09:01:15;14.57;;;4.90;;
6290;SDS011;3178;48.730;8.990;2022-12-20T09:03:42;14.30;;;5.30;;
6290;SDS011;3178;48.730;8.990;2022-12-20T09:06:12;11.87;;;5.47;;
6290;SDS011;3178;48.730;8.990;2022-12-20T09:08:40;10.00;;;4.53;;
6290;SDS011;3178;48.730;8.990;2022-12-20T09:11:07;8.00;;;5.23;;
6290;SDS011;3178;48.730;8.990;2022-12-20T09:13:38;8.40;;;4.63;;
6290;SDS011;3178;48.730;8.990;2022-12-20T09:16:05;7.80;;;5.20;;
6290;SDS011;3178;48.730;8.990;2022-12-20T09:18:32;9.47;;;5.20;;
6290;SDS011;3178;48.730;8.990;2022-12-20T09:20:59;10.10;;;4.73;;
6290;SDS011;3178;48.730;8.990;2022-12-20T09:23:26;8.10;;;5.70;;
6290;SDS011;3178;48.730;8.990;2022-12-20T09:25:52;9.77;;;5.23;;
6290;SDS011;3178;48.730;8.990;2022-12-20T09:28:17;10.90;;;5.23;;
6290;SDS011;3178;48.730;8.990;2022-12-20T09:30:43;10.47;;;5.23;;
6290;SDS011;3178;48.730;8.990;2022-12-20T09:33:09;6.90;;;4.30;;
6290;SDS011;3178;48.730;8.990;2022-12-20T09:35:35;16.80;;;5.13;;
6290;SDS011;3178;48.730;8.990;2022-12-20T09:38:00;9.17;;;4.83;;
6290;SDS011;3178;48.730;8.990;2022-12-20T09:40:27;13.97;;;4.90;;
6290;SDS011;3178;48.730;8.990;2022-12-20T09:42:56;9.60;;;5.00;;
6290;SDS011;3178;48.730;8.990;2022-12-20T09:45:24;6.97;;;4.33;;
6290;SDS011;3178;48.730;8.990;2022-12-20T09:47:52;7.03;;;4.07;;
6290;SDS011;3178;48.730;8.990;2022-12-20T09:50:18;6.50;;;4.70;;
6290;SDS011;3178;48.730;8.990;2022-12-20T09:52:47;17.00;;;4.67;;
6290;SDS011;3178;48.730;8.990;2022-12-20T09:55:31;7.20;;;4.20;;
6290;SDS011;3178;48.730;8.990;2022-12-20T10:00:54;6.80;;;4.33;;
6290;SDS011;3178;48.730;8.990;2022-12-20T10:03:28;6.93;;;4.00;;
6290;SDS011;3178;48.730;8.990;2022-12-20T10:06:02;9.80;;;4.40;;
6290;SDS011;3178;48.730;8.990;2022-12-20T10:08:54;8.30;;;4.03;;
6290;SDS011;3178;48.730;8.990;2022-12-20T10:11:55;8.40;;;4.10;;
6290;SDS011;3178;48.730;8.990;2022-12-20T10:20:01;7.77;;;3.60;;
6290;SDS011;3178;48.730;8.990;2022-12-20T10:22:38;8.43;;;3.87;;
6290;SDS011;3178;48.730;8.990;2022-12-20T10:25:19;7.93;;;4.30;;
6290;SDS011;3178;48.730;8.990;2022-12-20T10:27:54;7.47;;;4.30;;
6290;SDS011;3178;48.730;8.990;2022-12-20T10:30:22;4.60;;;3.63;;
6290;SDS011;3178;48.730;8.990;2022-12-20T10:32:50;5.63;;;3.63;;
6290;SDS011;3178;48.730;8.990;2022-12-20T10:38:01;10.33;;;4.10;;
6290;SDS011;3178;48.730;8.990;2022-12-20T10:40:30;6.17;;;4.27;;
6290;SDS011;3178;48.730;8.990;2022-12-20T10:42:59;8.63;;;4.80;;
6290;SDS011;3178;48.730;8.990;2022-12-20T10:45:35;8.00;;;5.10;;
6290;SDS011;3178;48.730;8.990;2022-12-20T10:48:04;9.80;;;4.73;;
6290;SDS011;3178;48.730;8.990;2022-12-20T10:50:31;7.30;;;4.20;;
6290;SDS011;3178;48.730;8.990;2022-12-20T10:53:02;7.43;;;3.60;;
6290;SDS011;3178;48.730;8.990;2022-12-20T10:55:32;5.07;;;3.50;;
6290;SDS011;3178;48.730;8.990;2022-12-20T10:58:01;6.07;;;3.80;;
6290;SDS011;3178;48.730;8.990;2022-12-20T11:00:37;8.70;;;5.50;;
6290;SDS011;3178;48.730;8.990;2022-12-20T11:03:10;6.47;;;4.23;;
6290;SDS011;3178;48.730;8.990;2022-12-20T11:08:23;7.33;;;4.27;;
6290;SDS011;3178;48.730;8.990;2022-12-20T11:10:58;12.43;;;4.00;;
6290;SDS011;3178;48.730;8.990;2022-12-20T11:13:38;4.90;;;3.43;;
6290;SDS011;3178;48.730;8.990;2022-12-20T11:16:05;7.43;;;4.00;;
6290;SDS011;3178;48.730;8.990;2022-12-20T11:18:54;6.10;;;3.93;;
6290;SDS011;3178;48.730;8.990;2022-12-20T11:24:12;5.10;;;3.47;;
6290;SDS011;3178;48.730;8.990;2022-12-20T11:32:35;8.50;;;4.53;;
6290;SDS011;3178;48.730;8.990;2022-12-20T11:35:17;6.50;;;4.10;;
6290;SDS011;3178;48.730;8.990;2022-12-20T11:38:06;7.10;;;3.73;;
6290;SDS011;3178;48.730;8.990;2022-12-20T11:40:48;9.67;;;4.10;;
6290;SDS011;3178;48.730;8.990;2022-12-20T11:48:52;5.63;;;3.73;;
6290;SDS011;3178;48.730;8.990;2022-12-20T11:56:33;6.93;;;3.97;;
6290;SDS011;3178;48.730;8.990;2022-12-20T11:59:06;5.63;;;3.33;;
6290;SDS011;3178;48.730;8.990;2022-12-20T12:01:44;7.57;;;3.80;;
6290;SDS011;3178;48.730;8.990;2022-12-20T12:04:17;7.63;;;3.57;;
6290;SDS011;3178;48.730;8.990;2022-12-20T12:06:47;9.77;;;4.00;;
6290;SDS011;3178;48.730;8.990;2022-12-20T12:09:26;5.67;;;3.90;;
6290;SDS011;3178;48.730;8.990;2022-12-20T12:17:41;9.63;;;3.87;;
6290;SDS011;3178;48.730;8.990;2022-12-20T12:22:44;8.77;;;3.70;;
6290;SDS011;3178;48.730;8.990;2022-12-20T12:25:13;11.10;;;4.60;;
6290;SDS011;3178;48.730;8.990;2022-12-20T12:27:42;10.97;;;3.53;;
6290;SDS011;3178;48.730;8.990;2022-12-20T12:30:12;7.00;;;3.60;;
6290;SDS011;3178;48.730;8.990;2022-12-20T12:46:08;6.90;;;4.07;;
6290;SDS011;3178;48.730;8.990;2022-12-20T12:48:45;10.00;;;3.80;;
6290;SDS011;3178;48.730;8.990;2022-12-20T12:51:20;4.83;;;3.70;;
6290;SDS011;3178;48.730;8.990;2022-12-20T12:56:40;9.80;;;3.27;;
6290;SDS011;3178;48.730;8.990;2022-12-20T13:01:53;8.30;;;3.23;;
6290;SDS011;3178;48.730;8.990;2022-12-20T13:04:53;8.93;;;4.63;;
6290;SDS011;3178;48.730;8.990;2022-12-20T13:17:58;11.13;;;4.60;;
6290;SDS011;3178;48.730;8.990;2022-12-20T13:21:15;5.93;;;3.20;;
6290;SDS011;3178;48.730;8.990;2022-12-20T13:24:10;5.63;;;3.60;;
6290;SDS011;3178;48.730;8.990;2022-12-20T13:26:55;18.13;;;4.40;;
6290;SDS011;3178;48.730;8.990;2022-12-20T13:29:25;8.93;;;4.10;;
6290;SDS011;3178;48.730;8.990;2022-12-20T13:31:56;5.40;;;3.33;;
6290;SDS011;3178;48.730;8.990;2022-12-20T13:34:34;9.63;;;4.03;;
6290;SDS011;3178;48.730;8.990;2022-12-20T13:37:00;8.40;;;4.07;;
6290;SDS011;3178;48.730;8.990;2022-12-20T13:41:52;5.57;;;3.90;;
6290;SDS011;3178;48.730;8.990;2022-12-20T13:44:49;8.70;;;4.47;;
6290;SDS011;3178;48.730;8.990;2022-12-20T13:49:50;7.00;;;3.67;;
6290;SDS011;3178;48.730;8.990;2022-12-20T13:52:20;9.00;;;3.30;;
6290;SDS011;3178;48.730;8.990;2022-12-20T13:54:52;8.67;;;3.30;;
6290;SDS011;3178;48.730;8.990;2022-12-20T13:57:23;7.83;;;4.27;;
6290;SDS011;3178;48.730;8.990;2022-12-20T13:59:54;11.33;;;3.73;;
6290;SDS011;3178;48.730;8.990;2022-12-20T14:02:29;5.57;;;3.10;;
6290;SDS011;3178;48.730;8.990;2022-12-20T14:05:06;11.80;;;4.40;;
6290;SDS011;3178;48.730;8.990;2022-12-20T14:07:39;7.30;;;3.60;;
6290;SDS011;3178;48.730;8.990;2022-12-20T14:10:16;16.87;;;5.80;;
6290;SDS011;3178;48.730;8.990;2022-12-20T14:12:48;11.60;;;5.87;;
6290;SDS011;3178;48.730;8.990;2022-12-20T14:15:31;16.50;;;5.57;;
6290;SDS011;3178;48.730;8.990;2022-12-20T14:18:31;10.90;;;6.27;;
6290;SDS011;3178;48.730;8.990;2022-12-20T14:20:51;13.17;;;5.60;;
6290;SDS011;3178;48.730;8.990;2022-12-20T14:23:21;11.07;;;5.53;;
6290;SDS011;3178;48.730;8.990;2022-12-20T14:25:56;10.13;;;4.97;;
6290;SDS011;3178;48.730;8.990;2022-12-20T14:28:26;11.73;;;5.30;;
6290;SDS011;3178;48.730;8.990;2022-12-20T14:30:54;12.97;;;6.27;;
6290;SDS011;3178;48.730;8.990;2022-12-20T14:33:27;12.20;;;4.70;;
6290;SDS011;3178;48.730;8.990;2022-12-20T14:38:34;6.43;;;3.83;;
6290;SDS011;3178;48.730;8.990;2022-12-20T14:41:00;8.33;;;5.00;;
6290;SDS011;3178;48.730;8.990;2022-12-20T14:43:33;6.87;;;4.47;;
6290;SDS011;3178;48.730;8.990;2022-12-20T14:46:14;17.33;;;5.40;;
6290;SDS011;3178;48.730;8.990;2022-12-20T14:48:42;11.90;;;4.40;;
6290;SDS011;3178;48.730;8.990;2022-12-20T14:51:09;7.30;;;4.03;;
6290;SDS011;3178;48.730;8.990;2022-12-20T14:53:36;16.53;;;6.03;;
6290;SDS011;3178;48.730;8.990;2022-12-20T14:56:03;7.77;;;5.10;;
6290;SDS011;3178;48.730;8.990;2022-12-20T14:58:30;6.53;;;3.70;;
6290;SDS011;3178;48.730;8.990;2022-12-20T15:01:02;9.90;;;3.90;;
6290;SDS011;3178;48.730;8.990;2022-12-20T15:03:49;10.10;;;4.50;;
6290;SDS011;3178;48.730;8.990;2022-12-20T15:09:12;7.53;;;4.30;;
6290;SDS011;3178;48.730;8.990;2022-12-20T15:11:38;8.10;;;4.70;;
6290;SDS011;3178;48.730;8.990;2022-12-20T15:14:51;7.70;;;4.43;;
6290;SDS011;3178;48.730;8.990;2022-12-20T15:16:57;11.90;;;4.43;;
6290;SDS011;3178;48.730;8.990;2022-12-20T15:19:23;8.60;;;5.13;;
6290;SDS011;3178;48.730;8.990;2022-12-20T15:21:49;15.07;;;7.00;;
6290;SDS011;3178;48.730;8.990;2022-12-20T15:24:16;10.83;;;5.67;;
6290;SDS011;3178;48.730;8.990;2022-12-20T15:26:45;12.83;;;5.40;;
6290;SDS011;3178;48.730;8.990;2022-12-20T15:29:15;7.50;;;4.30;;
6290;SDS011;3178;48.730;8.990;2022-12-20T15:31:42;10.30;;;5.13;;
6290;SDS011;3178;48.730;8.990;2022-12-20T15:34:11;10.20;;;4.90;;
6290;SDS011;3178;48.730;8.990;2022-12-20T15:36:41;11.37;;;5.40;;
6290;SDS011;3178;48.730;8.990;2022-12-20T15:39:08;13.20;;;5.27;;
6290;SDS011;3178;48.730;8.990;2022-12-20T15:41:35;11.57;;;5.20;;
6290;SDS011;3178;48.730;8.990;2022-12-20T15:44:10;10.83;;;5.20;;
6290;SDS011;3178;48.730;8.990;2022-12-20T15:46:39;9.20;;;5.50;;
6290;SDS011;3178;48.730;8.990;2022-12-20T15:49:04;7.13;;;4.47;;
6290;SDS011;3178;48.730;8.990;2022-12-20T15:51:34;9.83;;;5.37;;
6290;SDS011;3178;48.730;8.990;2022-12-20T15:54:03;10.57;;;5.60;;
6290;SDS011;3178;48.730;8.990;2022-12-20T15:56:31;10.20;;;5.17;;
6290;SDS011;3178;48.730;8.990;2022-12-20T15:58:56;8.20;;;4.60;;
6290;SDS011;3178;48.730;8.990;2022-12-20T16:01:35;10.93;;;5.63;;
6290;SDS011;3178;48.730;8.990;2022-12-20T16:04:02;10.53;;;5.50;;
6290;SDS011;3178;48.730;8.990;2022-12-20T16:06:29;5.93;;;4.37;;
6290;SDS011;3178;48.730;8.990;2022-12-20T16:08:55;23.27;;;4.30;;
6290;SDS011;3178;48.730;8.990;2022-12-20T16:11:22;7.27;;;3.87;;
6290;SDS011;3178;48.730;8.990;2022-12-20T16:13:48;7.53;;;4.40;;
6290;SDS011;3178;48.730;8.990;2022-12-20T16:16:15;5.67;;;3.57;;
6290;SDS011;3178;48.730;8.990;2022-12-20T16:18:42;7.77;;;4.17;;
6290;SDS011;3178;48.730;8.990;2022-12-20T16:21:30;6.80;;;3.67;;
6290;SDS011;3178;48.730;8.990;2022-12-20T16:23:56;6.07;;;4.53;;
6290;SDS011;3178;48.730;8.990;2022-12-20T16:26:23;10.60;;;4.83;;
6290;SDS011;3178;48.730;8.990;2022-12-20T16:28:50;6.23;;;4.03;;
6290;SDS011;3178;48.730;8.990;2022-12-20T16:31:27;12.20;;;4.30;;
6290;SDS011;3178;48.730;8.990;2022-12-20T16:33:58;7.67;;;3.40;;
6290;SDS011;3178;48.730;8.990;2022-12-20T16:36:25;4.33;;;3.13;;
6290;SDS011;3178;48.730;8.990;2022-12-20T16:38:51;7.70;;;3.77;;
6290;SDS011;3178;48.730;8.990;2022-12-20T16:41:27;8.23;;;4.40;;
6290;SDS011;3178;48.730;8.990;2022-12-20T16:43:55;4.60;;;3.20;;
6290;SDS011;3178;48.730;8.990;2022-12-20T16:46:23;11.93;;;4.13;;
6290;SDS011;3178;48.730;8.990;2022-12-20T16:48:51;7.00;;;3.53;;
6290;SDS011;3178;48.730;8.990;2022-12-20T16:51:24;5.87;;;3.93;;
6290;SDS011;3178;48.730;8.990;2022-12-20T16:53:54;9.07;;;4.77;;